Time;durP1;ratioP1;P1;durP2;ratioP2;P2;SDS_P1;SDS_P2;PMS_P1;PMS_P2;Temp;Humidity;BMP_temperature;BMP_pressure;BME280_temperature;BME280_humidity;BME280_pressure;Samples;Min_cycle;Max_cycle;Signal;HPM_P1;HPM_P2
2023/11/19 00:00:29;;;;;;;2.50;2.27;;;20.50;57.50;;;;;;5054816;28;20778;-70
2023/11/19 00:02:54;;;;;;;5.30;2.93;;;20.50;57.50;;;;;;5054379;28;20203;-70
2023/11/19 00:05:20;;;;;;;3.20;2.50;;;20.50;57.60;;;;;;5054415;28;20171;-70
2023/11/19 00:07:46;;;;;;;2.40;2.20;;;20.50;57.50;;;;;;5054236;28;20194;-69
2023/11/19 00:10:14;;;;;;;5.57;2.37;;;20.50;57.60;;;;;;5054396;28;20171;-69
2023/11/19 00:12:46;;;;;;;2.77;2.47;;;20.50;57.60;;;;;;5054392;28;20167;-69
2023/11/19 00:15:14;;;;;;;4.07;2.60;;;20.50;57.60;;;;;;5054476;28;20958;-69
2023/11/19 00:17:44;;;;;;;2.97;2.50;;;20.50;57.60;;;;;;5054001;28;20500;-69
2023/11/19 00:20:14;;;;;;;4.50;2.50;;;20.50;57.60;;;;;;5054177;28;20481;-68
2023/11/19 00:22:41;;;;;;;3.07;2.33;;;20.50;57.60;;;;;;5054128;28;20582;-69
2023/11/19 00:25:07;;;;;;;2.80;2.47;;;20.50;57.60;;;;;;5054273;28;20417;-69
2023/11/19 00:27:33;;;;;;;3.27;2.97;;;20.50;57.60;;;;;;5053867;28;20425;-68
2023/11/19 00:29:59;;;;;;;4.00;2.50;;;20.50;57.60;;;;;;5054015;28;20409;-69
2023/11/19 00:32:24;;;;;;;3.37;2.33;;;20.50;57.60;;;;;;5054050;28;20254;-68
2023/11/19 00:34:50;;;;;;;4.60;2.80;;;20.50;57.60;;;;;;5054045;28;20205;-69
2023/11/19 00:37:16;;;;;;;2.57;2.03;;;20.50;57.60;;;;;;5053644;28;20184;-70
2023/11/19 00:39:46;;;;;;;3.20;2.90;;;20.50;57.60;;;;;;5052477;28;20187;-68
2023/11/19 00:42:11;;;;;;;2.57;2.37;;;20.50;57.60;;;;;;5053705;28;20967;-69
2023/11/19 00:44:37;;;;;;;3.10;2.73;;;20.50;57.60;;;;;;5053753;28;20413;-68
2023/11/19 00:47:03;;;;;;;5.10;3.10;;;20.50;57.60;;;;;;5053481;28;20222;-69
2023/11/19 00:49:29;;;;;;;3.00;2.27;;;20.50;57.60;;;;;;5053609;28;20262;-69
2023/11/19 00:51:54;;;;;;;3.40;2.50;;;20.50;57.60;;;;;;5053615;28;20861;-69
2023/11/19 00:54:20;;;;;;;3.00;2.33;;;20.50;57.60;;;;;;5053381;28;20175;-69
2023/11/19 00:56:45;;;;;;;2.83;2.40;;;20.50;58.10;;;;;;5053606;28;20965;-68
2023/11/19 00:59:11;;;;;;;4.10;2.97;;;20.50;57.60;;;;;;5053652;28;20270;-69
2023/11/19 01:01:37;;;;;;;3.23;2.47;;;20.50;57.60;;;;;;5053756;28;20661;-68
2023/11/19 01:04:03;;;;;;;2.43;2.23;;;20.50;57.60;;;;;;5053856;28;20464;-69
2023/11/19 01:06:29;;;;;;;3.43;2.60;;;20.50;57.60;;;;;;5052027;28;20685;-68
2023/11/19 01:08:56;;;;;;;3.20;2.67;;;20.50;57.60;;;;;;5053543;28;20557;-69
2023/11/19 01:11:23;;;;;;;2.73;2.40;;;20.50;57.60;;;;;;5053150;28;20411;-69
2023/11/19 01:13:49;;;;;;;2.90;2.30;;;20.50;57.60;;;;;;5053481;28;20917;-69
2023/11/19 01:16:15;;;;;;;3.10;2.43;;;20.50;57.60;;;;;;5052989;28;20441;-69
2023/11/19 01:18:41;;;;;;;2.90;2.27;;;20.50;57.60;;;;;;5053154;28;20444;-69
2023/11/19 01:21:06;;;;;;;2.47;2.17;;;20.40;57.50;;;;;;5053663;28;20778;-69
2023/11/19 01:23:32;;;;;;;2.73;2.53;;;20.50;57.60;;;;;;5052920;28;20219;-69
2023/11/19 01:25:58;;;;;;;4.50;2.50;;;20.50;57.60;;;;;;5052633;28;20670;-69
2023/11/19 01:28:24;;;;;;;3.20;2.57;;;20.50;57.60;;;;;;5053297;28;20175;-70
2023/11/19 01:30:52;;;;;;;2.20;2.00;;;20.40;57.50;;;;;;5053373;28;20167;-69
2023/11/19 01:33:18;;;;;;;3.00;2.70;;;20.50;57.60;;;;;;5053107;28;20179;-68
2023/11/19 01:35:44;;;;;;;2.53;2.30;;;20.40;57.50;;;;;;5052673;28;20474;-69
2023/11/19 01:38:09;;;;;;;2.57;2.20;;;20.40;57.50;;;;;;5052900;28;20181;-69
2023/11/19 01:40:38;;;;;;;1.93;1.60;;;20.40;58.10;;;;;;5052970;28;20182;-69
2023/11/19 01:43:04;;;;;;;3.60;2.50;;;20.40;57.50;;;;;;5052475;28;20927;-69
2023/11/19 01:45:31;;;;;;;2.83;2.50;;;20.40;57.50;;;;;;5052193;28;20486;-69
2023/11/19 01:47:58;;;;;;;2.20;2.00;;;20.40;57.60;;;;;;5052769;28;20232;-69
2023/11/19 01:50:25;;;;;;;2.67;2.10;;;20.40;57.50;;;;;;5052660;28;20487;-69
2023/11/19 01:52:57;;;;;;;3.20;2.90;;;20.40;57.50;;;;;;5052939;28;20416;-69
2023/11/19 01:55:25;;;;;;;2.70;2.50;;;20.50;57.60;;;;;;5052525;28;20413;-68
2023/11/19 01:57:53;;;;;;;2.10;1.90;;;20.40;57.50;;;;;;5051739;28;20436;-69
2023/11/19 02:00:19;;;;;;;3.20;2.37;;;20.40;57.50;;;;;;5052473;28;20413;-68
2023/11/19 02:02:47;;;;;;;2.73;2.20;;;20.40;57.50;;;;;;5051954;28;20457;-67
2023/11/19 02:05:14;;;;;;;2.40;2.20;;;20.40;57.50;;;;;;5052386;28;20438;-69
2023/11/19 02:07:40;;;;;;;3.23;2.30;;;20.40;57.50;;;;;;5052227;28;20444;-67
2023/11/19 02:10:08;;;;;;;2.50;2.30;;;20.50;57.60;;;;;;5052321;28;20409;-69
2023/11/19 02:12:33;;;;;;;3.23;2.30;;;20.40;57.50;;;;;;5052612;28;20182;-68
2023/11/19 02:14:59;;;;;;;2.73;2.10;;;20.40;57.50;;;;;;5052161;28;20409;-70
2023/11/19 02:17:34;;;;;;;2.70;2.43;;;20.40;57.50;;;;;;5051837;28;20230;-69
2023/11/19 02:20:00;;;;;;;3.43;3.13;;;20.40;57.50;;;;;;5052253;28;20400;-69
2023/11/19 02:22:26;;;;;;;2.70;2.50;;;20.40;57.50;;;;;;5051822;28;20456;-69
2023/11/19 02:24:59;;;;;;;2.17;1.97;;;20.40;57.50;;;;;;5052149;28;20908;-70
2023/11/19 02:27:36;;;;;;;2.70;2.10;;;20.40;57.50;;;;;;5040036;28;20453;-68
2023/11/19 02:30:06;;;;;;;2.67;2.47;;;20.40;57.50;;;;;;5051691;28;20410;-68
2023/11/19 02:32:31;;;;;;;2.10;1.80;;;20.40;57.60;;;;;;5050763;28;20440;-69
2023/11/19 02:34:57;;;;;;;3.57;2.43;;;20.40;57.50;;;;;;5051419;28;20541;-68
2023/11/19 02:37:23;;;;;;;3.23;2.33;;;20.40;57.50;;;;;;5049915;28;20199;-68
2023/11/19 02:39:48;;;;;;;2.30;1.87;;;20.40;57.60;;;;;;5051625;28;20623;-68
2023/11/19 02:42:14;;;;;;;2.20;2.00;;;20.40;57.50;;;;;;5051868;28;20502;-69
2023/11/19 02:44:44;;;;;;;2.20;2.00;;;20.40;57.50;;;;;;5051582;28;20171;-68
2023/11/19 02:47:09;;;;;;;3.07;2.13;;;20.40;57.50;;;;;;5051862;28;20616;-68
2023/11/19 02:49:37;;;;;;;2.83;2.43;;;20.40;57.50;;;;;;5051712;28;20786;-70
2023/11/19 02:52:05;;;;;;;2.20;2.00;;;20.40;57.60;;;;;;5051839;28;20159;-68
2023/11/19 02:54:34;;;;;;;2.33;1.97;;;20.40;57.50;;;;;;5051654;28;20412;-69
2023/11/19 02:57:02;;;;;;;2.40;2.10;;;20.40;57.50;;;;;;5051308;28;20433;-68
2023/11/19 02:59:27;;;;;;;2.33;1.93;;;20.40;57.50;;;;;;5051420;28;20413;-68
2023/11/19 03:01:54;;;;;;;2.73;2.07;;;20.40;57.60;;;;;;5051727;28;20429;-69
2023/11/19 03:04:20;;;;;;;2.00;1.80;;;20.40;57.50;;;;;;5051366;28;20652;-69
2023/11/19 03:06:46;;;;;;;2.47;2.27;;;20.50;57.60;;;;;;5051329;28;20421;-69
2023/11/19 03:09:12;;;;;;;2.10;1.90;;;20.40;57.50;;;;;;5051609;28;20171;-68
2023/11/19 03:11:38;;;;;;;2.60;2.13;;;20.40;57.50;;;;;;5051061;28;20400;-66
2023/11/19 03:14:04;;;;;;;2.67;2.27;;;20.40;57.50;;;;;;5051366;28;20185;-70
2023/11/19 03:16:30;;;;;;;2.33;2.07;;;20.40;57.50;;;;;;5051406;28;20425;-69
2023/11/19 03:18:56;;;;;;;3.93;2.40;;;20.40;57.50;;;;;;5051360;28;20211;-69
2023/11/19 03:21:31;;;;;;;2.77;2.30;;;20.40;57.50;;;;;;5051644;28;20597;-68
2023/11/19 03:24:00;;;;;;;2.30;1.90;;;20.40;57.50;;;;;;5051150;28;20454;-69
2023/11/19 03:26:27;;;;;;;2.17;1.97;;;20.40;57.50;;;;;;5051151;28;20425;-70
2023/11/19 03:28:53;;;;;;;2.50;2.30;;;20.40;57.50;;;;;;5051057;28;20508;-67
2023/11/19 03:31:20;;;;;;;3.73;2.50;;;20.40;57.50;;;;;;5051428;28;20794;-69
2023/11/19 03:33:46;;;;;;;2.93;2.20;;;20.40;57.50;;;;;;5050924;28;20424;-68
2023/11/19 03:36:12;;;;;;;2.63;2.23;;;20.40;57.50;;;;;;5050979;28;21077;-68
2023/11/19 03:38:38;;;;;;;2.70;2.50;;;20.40;57.50;;;;;;5051195;28;20448;-69
2023/11/19 03:41:13;;;;;;;2.10;1.90;;;20.40;57.50;;;;;;5051084;28;20495;-70
2023/11/19 03:43:40;;;;;;;2.90;2.50;;;20.40;57.50;;;;;;5050751;28;20225;-68
2023/11/19 03:46:21;;;;;;;2.47;2.10;;;20.40;57.50;;;;;;5050814;28;20798;-69
2023/11/19 03:48:49;;;;;;;2.17;1.70;;;20.40;57.50;;;;;;5051001;28;20425;-68
2023/11/19 03:51:15;;;;;;;4.03;2.50;;;20.40;57.50;;;;;;5051301;28;20447;-70
2023/11/19 03:53:44;;;;;;;2.80;2.00;;;20.40;57.50;;;;;;5051006;28;20421;-69
2023/11/19 03:56:11;;;;;;;2.00;1.80;;;20.40;57.50;;;;;;5050850;28;20434;-70
2023/11/19 03:58:38;;;;;;;2.27;2.07;;;20.40;57.60;;;;;;5051094;28;20543;-69
2023/11/19 04:01:13;;;;;;;2.50;2.13;;;20.40;57.50;;;;;;5050745;28;20413;-68
2023/11/19 04:03:38;;;;;;;2.17;1.97;;;20.40;57.60;;;;;;5050533;28;20440;-68
2023/11/19 04:06:04;;;;;;;2.23;2.03;;;20.40;57.50;;;;;;5050948;28;20437;-69
2023/11/19 04:08:30;;;;;;;2.00;1.80;;;20.40;58.10;;;;;;5050487;28;20175;-69
2023/11/19 04:10:55;;;;;;;3.77;1.77;;;20.40;57.50;;;;;;5050698;28;20178;-68
2023/11/19 04:13:22;;;;;;;2.37;1.90;;;20.40;57.50;;;;;;5050833;28;20229;-68
2023/11/19 04:15:49;;;;;;;2.27;1.83;;;20.40;57.50;;;;;;5050869;28;20614;-69
2023/11/19 04:18:15;;;;;;;3.23;2.40;;;20.40;57.50;;;;;;5050542;28;20443;-69
2023/11/19 04:20:41;;;;;;;2.00;1.80;;;20.40;57.60;;;;;;5052179;28;20904;-69
2023/11/19 04:23:07;;;;;;;2.03;1.77;;;20.40;57.50;;;;;;5054002;28;20557;-69
2023/11/19 04:25:34;;;;;;;2.80;2.10;;;20.40;57.50;;;;;;5054148;28;20435;-69
2023/11/19 04:28:00;;;;;;;2.10;1.80;;;20.40;57.50;;;;;;5054115;28;20420;-69
2023/11/19 04:30:26;;;;;;;2.27;2.07;;;20.40;57.50;;;;;;5053764;28;20422;-69
2023/11/19 04:32:51;;;;;;;2.50;2.03;;;20.40;57.50;;;;;;5054165;28;20183;-68
2023/11/19 04:35:18;;;;;;;1.90;1.67;;;20.40;57.50;;;;;;5054089;28;20179;-68
2023/11/19 04:37:44;;;;;;;2.40;2.20;;;20.40;57.50;;;;;;5054073;28;20191;-71
2023/11/19 04:40:11;;;;;;;2.00;1.70;;;20.40;57.50;;;;;;5053984;28;20786;-68
2023/11/19 04:42:40;;;;;;;1.60;1.47;;;20.40;57.50;;;;;;5054207;28;20261;-69
2023/11/19 04:45:06;;;;;;;2.07;1.90;;;20.40;57.50;;;;;;5054228;28;20406;-69
2023/11/19 04:47:36;;;;;;;2.17;1.97;;;20.40;57.50;;;;;;5053734;28;20849;-69
2023/11/19 04:50:02;;;;;;;2.10;1.90;;;20.40;57.50;;;;;;5053625;28;20413;-69
2023/11/19 04:52:28;;;;;;;2.10;1.90;;;20.40;57.50;;;;;;5054013;28;20776;-69
2023/11/19 04:54:54;;;;;;;1.93;1.73;;;20.40;57.50;;;;;;5053504;28;20598;-69
2023/11/19 04:57:19;;;;;;;1.97;1.77;;;20.40;57.50;;;;;;5053637;28;20202;-69
2023/11/19 04:59:45;;;;;;;3.20;2.37;;;20.40;57.60;;;;;;5053585;28;20179;-69
2023/11/19 05:02:11;;;;;;;1.90;1.67;;;20.40;57.50;;;;;;5053453;28;20636;-68
2023/11/19 05:04:39;;;;;;;2.17;1.90;;;20.40;57.50;;;;;;5053642;28;20597;-69
2023/11/19 05:07:05;;;;;;;2.40;2.20;;;20.40;57.60;;;;;;5051737;28;20237;-69
2023/11/19 05:09:31;;;;;;;2.20;1.73;;;20.40;57.60;;;;;;5053725;28;20413;-69
2023/11/19 05:11:57;;;;;;;2.20;2.00;;;20.40;57.50;;;;;;5053419;28;20179;-69
2023/11/19 05:14:24;;;;;;;2.40;1.70;;;20.40;57.50;;;;;;5052869;28;20444;-69
2023/11/19 05:16:49;;;;;;;2.23;1.73;;;20.40;57.50;;;;;;5053019;28;20623;-69
2023/11/19 05:19:15;;;;;;;2.40;2.20;;;20.40;57.60;;;;;;5052825;28;20421;-68
2023/11/19 05:21:44;;;;;;;1.63;1.53;;;20.40;57.60;;;;;;5052887;28;20650;-68
2023/11/19 05:24:09;;;;;;;2.20;1.70;;;20.40;57.50;;;;;;5053111;28;20202;-69
2023/11/19 05:26:35;;;;;;;1.67;1.57;;;20.40;57.50;;;;;;5053102;28;20433;-68
2023/11/19 05:29:01;;;;;;;1.90;1.53;;;20.40;57.60;;;;;;5053003;28;20183;-68
2023/11/19 05:31:26;;;;;;;2.63;1.83;;;20.40;57.60;;;;;;5052243;28;20823;-69
2023/11/19 05:33:52;;;;;;;2.60;2.27;;;20.40;57.50;;;;;;5052847;28;20273;-69
2023/11/19 05:36:17;;;;;;;2.73;2.37;;;20.40;57.60;;;;;;5052888;28;20198;-69
2023/11/19 05:38:44;;;;;;;2.47;1.50;;;20.40;57.60;;;;;;5052935;28;20182;-70
2023/11/19 05:41:10;;;;;;;1.60;1.50;;;20.40;57.50;;;;;;5052663;28;20195;-69
2023/11/19 05:43:36;;;;;;;1.70;1.60;;;20.30;57.50;;;;;;5052638;28;20547;-69
2023/11/19 05:46:02;;;;;;;1.70;1.53;;;20.30;57.50;;;;;;5052504;28;20194;-69
2023/11/19 05:48:27;;;;;;;2.53;1.70;;;20.40;57.60;;;;;;5052705;28;20179;-69
2023/11/19 05:50:53;;;;;;;2.17;1.80;;;20.30;57.50;;;;;;5052790;28;20402;-68
2023/11/19 05:53:19;;;;;;;2.03;1.83;;;20.30;57.50;;;;;;5052372;28;20198;-69
2023/11/19 05:55:48;;;;;;;1.77;1.60;;;20.40;57.60;;;;;;5052464;28;20412;-69
2023/11/19 05:58:14;;;;;;;2.03;1.70;;;20.30;57.50;;;;;;5052209;28;20518;-68
2023/11/19 06:00:42;;;;;;;1.70;1.60;;;20.40;57.60;;;;;;5052626;28;20453;-68
2023/11/19 06:03:09;;;;;;;2.17;1.70;;;20.40;57.60;;;;;;5052600;28;20465;-68
2023/11/19 06:05:34;;;;;;;2.30;1.60;;;20.40;57.60;;;;;;5052003;28;20413;-68
2023/11/19 06:08:00;;;;;;;2.47;2.10;;;20.40;57.60;;;;;;5052550;28;20413;-69
2023/11/19 06:10:31;;;;;;;1.90;1.67;;;20.40;57.60;;;;;;5052510;28;20194;-68
2023/11/19 06:12:59;;;;;;;2.47;2.00;;;20.40;57.60;;;;;;5052195;28;20204;-70
2023/11/19 06:15:27;;;;;;;1.80;1.70;;;20.40;57.50;;;;;;5052142;28;21003;-70
2023/11/19 06:17:53;;;;;;;2.07;1.87;;;20.40;57.50;;;;;;5051902;28;20534;-69
2023/11/19 06:20:19;;;;;;;1.67;1.50;;;20.40;58.10;;;;;;5052283;28;20426;-69
2023/11/19 06:22:45;;;;;;;1.57;1.40;;;20.40;57.50;;;;;;5051908;28;20260;-69
2023/11/19 06:25:12;;;;;;;2.83;1.90;;;20.40;57.50;;;;;;5051792;28;20414;-69
2023/11/19 06:27:37;;;;;;;1.57;1.40;;;20.40;57.50;;;;;;5051971;28;20821;-69
2023/11/19 06:30:03;;;;;;;1.70;1.60;;;20.40;57.50;;;;;;5052239;28;20409;-68
2023/11/19 06:32:29;;;;;;;4.20;2.10;;;20.40;57.60;;;;;;5051913;28;20662;-69
2023/11/19 06:34:56;;;;;;;1.77;1.43;;;20.40;57.50;;;;;;5051812;28;20748;-69
2023/11/19 06:37:22;;;;;;;2.17;1.80;;;20.40;57.50;;;;;;5052086;28;20198;-68
2023/11/19 06:39:48;;;;;;;2.80;2.07;;;20.40;57.50;;;;;;5052075;28;20413;-69
2023/11/19 06:42:14;;;;;;;1.67;1.57;;;20.40;57.50;;;;;;5051681;28;20421;-70
2023/11/19 06:44:39;;;;;;;2.00;1.77;;;20.40;57.50;;;;;;5051759;28;20421;-69
2023/11/19 06:47:06;;;;;;;1.73;1.53;;;20.40;58.10;;;;;;5051443;28;20221;-67
2023/11/19 06:49:32;;;;;;;1.83;1.60;;;20.40;57.50;;;;;;5051524;28;20200;-69
2023/11/19 06:51:58;;;;;;;2.13;1.93;;;20.40;57.50;;;;;;5051760;28;20500;-68
2023/11/19 06:54:24;;;;;;;1.30;1.20;;;20.40;57.50;;;;;;5051714;28;20187;-69
2023/11/19 06:56:49;;;;;;;1.97;1.63;;;20.30;57.50;;;;;;5051376;28;20440;-70
2023/11/19 06:59:15;;;;;;;1.90;1.50;;;20.40;57.50;;;;;;5051247;28;20187;-69
2023/11/19 07:01:43;;;;;;;1.90;1.80;;;20.40;57.60;;;;;;5049899;28;20236;-69
2023/11/19 07:04:12;;;;;;;1.53;1.43;;;20.40;57.60;;;;;;5050956;28;20202;-68
2023/11/19 07:06:39;;;;;;;1.40;1.23;;;20.40;57.60;;;;;;5051059;28;20429;-70
2023/11/19 07:09:09;;;;;;;1.63;1.53;;;20.40;57.60;;;;;;5051022;28;20492;-69
2023/11/19 07:11:45;;;;;;;1.57;1.47;;;20.40;57.60;;;;;;5052073;28;20409;-69
2023/11/19 07:14:11;;;;;;;2.23;1.77;;;20.40;57.60;;;;;;5051612;28;20398;-69
2023/11/19 07:16:37;;;;;;;1.70;1.60;;;20.40;57.60;;;;;;5050796;28;20444;-70
2023/11/19 07:19:04;;;;;;;2.23;1.60;;;20.40;57.60;;;;;;5051039;28;20240;-69
2023/11/19 07:21:31;;;;;;;2.63;1.80;;;20.40;57.50;;;;;;5051341;28;20413;-69
2023/11/19 07:23:56;;;;;;;1.80;1.70;;;20.40;57.60;;;;;;5051297;28;20457;-71
2023/11/19 07:26:23;;;;;;;1.80;1.70;;;20.40;57.50;;;;;;5051280;28;20511;-68
2023/11/19 07:28:49;;;;;;;2.27;1.60;;;20.50;57.60;;;;;;5051183;28;20183;-68
2023/11/19 07:31:15;;;;;;;2.00;1.80;;;20.50;57.50;;;;;;5051181;28;20493;-69
2023/11/19 07:33:43;;;;;;;2.53;1.77;;;20.50;57.50;;;;;;5050897;28;20497;-69
2023/11/19 07:36:10;;;;;;;2.13;1.60;;;20.50;57.50;;;;;;5050622;28;20195;-70
2023/11/19 07:38:36;;;;;;;2.37;1.63;;;20.50;57.50;;;;;;5050317;28;20410;-69
2023/11/19 07:41:02;;;;;;;2.47;1.50;;;20.50;57.50;;;;;;5051363;28;20424;-68
2023/11/19 07:43:28;;;;;;;1.93;1.57;;;20.50;57.50;;;;;;5050639;28;20457;-69
2023/11/19 07:45:53;;;;;;;1.93;1.60;;;20.50;57.50;;;;;;5050305;28;20294;-70
2023/11/19 07:48:23;;;;;;;2.03;1.70;;;20.50;57.40;;;;;;5050841;28;20175;-69
2023/11/19 07:50:52;;;;;;;1.70;1.50;;;20.50;57.50;;;;;;5050785;28;20589;-69
2023/11/19 07:53:18;;;;;;;2.20;2.00;;;20.60;57.50;;;;;;5050614;28;20444;-70
2023/11/19 07:55:44;;;;;;;1.93;1.70;;;20.50;57.50;;;;;;5051913;28;20456;-69
2023/11/19 07:58:12;;;;;;;2.63;1.70;;;20.60;57.50;;;;;;5054624;28;20405;-69
2023/11/19 08:00:38;;;;;;;2.90;1.60;;;20.60;57.50;;;;;;5054516;28;20210;-69
2023/11/19 08:03:04;;;;;;;2.40;1.70;;;20.60;57.50;;;;;;5054604;28;20504;-69
2023/11/19 08:05:31;;;;;;;3.40;1.20;;;20.60;57.60;;;;;;5054593;28;20171;-69
2023/11/19 08:07:57;;;;;;;2.77;1.70;;;20.60;57.60;;;;;;5052876;28;20405;-70
2023/11/19 08:10:22;;;;;;;3.90;1.77;;;20.60;57.60;;;;;;5054014;28;20406;-69
2023/11/19 08:12:48;;;;;;;2.03;1.63;;;20.60;57.60;;;;;;5054061;28;20634;-69
2023/11/19 08:15:15;;;;;;;2.00;1.63;;;20.60;57.60;;;;;;5054116;28;20670;-68
2023/11/19 08:17:41;;;;;;;3.07;1.90;;;20.60;57.60;;;;;;5054089;28;20280;-69
2023/11/19 08:20:10;;;;;;;4.00;1.80;;;20.60;57.60;;;;;;5053644;28;20441;-69
2023/11/19 08:22:37;;;;;;;2.17;1.87;;;20.60;57.60;;;;;;5042167;28;20546;-70
2023/11/19 08:25:04;;;;;;;2.63;1.77;;;20.60;57.70;;;;;;5053565;28;20417;-71
2023/11/19 08:27:30;;;;;;;2.77;1.60;;;20.60;57.70;;;;;;5051579;28;20680;-69
2023/11/19 08:29:58;;;;;;;2.10;1.80;;;20.60;57.70;;;;;;5053426;28;20430;-69
2023/11/19 08:32:27;;;;;;;3.30;1.60;;;20.60;57.70;;;;;;5053196;28;20175;-69
2023/11/19 08:34:53;;;;;;;3.20;1.73;;;20.60;57.70;;;;;;5053653;28;20417;-70
2023/11/19 08:37:20;;;;;;;1.70;1.40;;;20.50;57.60;;;;;;5053377;28;20451;-69
2023/11/19 08:39:47;;;;;;;2.47;1.40;;;20.60;57.70;;;;;;5053292;28;20985;-68
2023/11/19 08:42:13;;;;;;;3.13;1.53;;;20.60;57.70;;;;;;5053477;28;20421;-69
2023/11/19 08:44:39;;;;;;;2.27;1.80;;;20.50;57.60;;;;;;5053462;28;20531;-68
2023/11/19 08:47:04;;;;;;;2.23;1.60;;;20.60;57.70;;;;;;5053670;28;20252;-68
2023/11/19 08:49:30;;;;;;;4.70;1.60;;;20.60;57.80;;;;;;5053107;28;20940;-69
2023/11/19 08:51:55;;;;;;;2.90;1.43;;;20.60;57.70;;;;;;5053617;28;20172;-69
2023/11/19 08:54:22;;;;;;;2.10;1.40;;;20.60;57.70;;;;;;5053577;28;20664;-69
2023/11/19 08:56:48;;;;;;;2.83;1.70;;;20.60;57.60;;;;;;5052956;28;20274;-69
2023/11/19 08:59:15;;;;;;;2.70;1.73;;;20.60;57.60;;;;;;5053347;28;20493;-69
2023/11/19 09:01:41;;;;;;;1.93;1.70;;;20.60;57.60;;;;;;5053713;28;20178;-68
2023/11/19 09:04:06;;;;;;;2.17;1.57;;;20.60;57.60;;;;;;5052970;28;20844;-69
2023/11/19 09:06:32;;;;;;;2.87;1.73;;;20.60;57.60;;;;;;5052756;28;20437;-69
2023/11/19 09:09:00;;;;;;;3.43;1.80;;;20.60;57.60;;;;;;5051619;28;20171;-68
2023/11/19 09:11:26;;;;;;;1.93;1.53;;;20.60;57.50;;;;;;5053099;28;20176;-69
2023/11/19 09:13:51;;;;;;;2.53;2.07;;;20.60;57.50;;;;;;5052766;28;20796;-69
2023/11/19 09:16:17;;;;;;;4.27;2.00;;;20.60;57.60;;;;;;5053021;28;20539;-69
2023/11/19 09:18:42;;;;;;;2.50;1.60;;;20.60;57.60;;;;;;5053145;28;20191;-69
2023/11/19 09:21:10;;;;;;;3.47;1.50;;;20.60;57.60;;;;;;5053037;28;20262;-68
2023/11/19 09:23:38;;;;;;;3.60;1.90;;;20.60;57.60;;;;;;5052867;28;20202;-69
2023/11/19 09:26:05;;;;;;;2.87;1.93;;;20.60;57.70;;;;;;5052594;28;20429;-69
2023/11/19 09:28:31;;;;;;;2.47;1.70;;;20.60;57.70;;;;;;5052580;28;20421;-69
2023/11/19 09:30:56;;;;;;;2.93;1.80;;;20.60;57.60;;;;;;5052821;28;20488;-70
2023/11/19 09:33:22;;;;;;;3.00;1.50;;;20.60;57.60;;;;;;5052612;28;20509;-68
2023/11/19 09:35:49;;;;;;;4.50;2.07;;;20.60;57.60;;;;;;5052587;28;20171;-69
2023/11/19 09:38:15;;;;;;;6.87;1.93;;;20.60;57.60;;;;;;5052599;28;20221;-70
2023/11/19 09:40:41;;;;;;;3.80;1.87;;;20.60;57.60;;;;;;5052709;28;20418;-68
2023/11/19 09:43:07;;;;;;;5.00;1.90;;;20.60;57.60;;;;;;5052797;28;20453;-70
2023/11/19 09:45:49;;;;;;;3.80;1.87;;;20.60;57.60;;;;;;5052499;28;20214;-69
2023/11/19 09:48:18;;;;;;;3.90;1.83;;;20.60;57.60;;;;;;5052476;28;20406;-68
2023/11/19 09:50:47;;;;;;;6.60;2.30;;;20.60;57.70;;;;;;5052066;28;20916;-68
2023/11/19 09:53:13;;;;;;;5.20;1.80;;;20.60;57.60;;;;;;5051766;28;20463;-68
2023/11/19 09:55:39;;;;;;;5.40;2.40;;;20.60;57.60;;;;;;5051966;28;20429;-70
2023/11/19 09:58:06;;;;;;;2.30;1.57;;;20.60;57.60;;;;;;5051514;28;20496;-69
2023/11/19 10:00:32;;;;;;;6.57;1.70;;;20.60;57.60;;;;;;5050107;28;20440;-69
2023/11/19 10:02:59;;;;;;;3.00;1.80;;;20.60;58.20;;;;;;5051477;28;20535;-68
2023/11/19 10:05:26;;;;;;;2.77;2.00;;;20.60;57.70;;;;;;5051842;28;20606;-68
2023/11/19 10:07:52;;;;;;;2.47;1.70;;;20.50;57.60;;;;;;5051528;28;20906;-68
2023/11/19 10:10:19;;;;;;;2.20;1.80;;;20.60;57.70;;;;;;5051230;28;20406;-69
2023/11/19 10:12:47;;;;;;;6.87;2.27;;;20.60;57.70;;;;;;5051287;28;20417;-69
2023/11/19 10:15:24;;;;;;;4.77;2.00;;;20.60;57.70;;;;;;5051217;28;20850;-69
2023/11/19 10:17:50;;;;;;;2.80;1.80;;;20.60;57.70;;;;;;5050757;28;21002;-68
2023/11/19 10:20:16;;;;;;;3.60;1.90;;;20.50;57.70;;;;;;5052304;28;20441;-69
2023/11/19 10:22:42;;;;;;;5.03;1.90;;;20.50;57.70;;;;;;5052151;28;20488;-68
2023/11/19 10:25:27;;;;;;;2.20;1.47;;;20.50;57.70;;;;;;5051989;28;20179;-68
2023/11/19 10:27:54;;;;;;;3.87;2.00;;;20.60;57.80;;;;;;5051742;28;20271;-68
2023/11/19 10:30:29;;;;;;;4.30;1.60;;;20.60;57.90;;;;;;5052027;28;20416;-69
2023/11/19 10:33:17;;;;;;;3.30;2.23;;;20.60;57.80;;;;;;5052141;28;20397;-69
2023/11/19 10:35:59;;;;;;;4.63;1.60;;;20.60;57.80;;;;;;5051741;28;20424;-67
2023/11/19 10:38:26;;;;;;;7.20;1.60;;;20.60;57.80;;;;;;5050322;28;20929;-68
2023/11/19 10:40:52;;;;;;;5.10;2.07;;;20.60;57.90;;;;;;5051594;28;20480;-69
2023/11/19 10:43:18;;;;;;;3.40;2.00;;;20.60;57.90;;;;;;5051382;28;20982;-68
2023/11/19 10:45:44;;;;;;;3.40;2.10;;;20.60;57.90;;;;;;5051240;28;20438;-69
2023/11/19 10:48:12;;;;;;;5.23;1.63;;;20.60;57.80;;;;;;5051399;28;20410;-67
2023/11/19 10:50:39;;;;;;;4.77;1.87;;;20.60;57.80;;;;;;5051358;28;20933;-69
2023/11/19 10:53:06;;;;;;;3.70;2.13;;;20.60;57.80;;;;;;5051319;28;20916;-68
2023/11/19 10:55:35;;;;;;;4.43;1.60;;;20.60;57.80;;;;;;5049737;28;20436;-69
2023/11/19 10:58:05;;;;;;;3.13;1.77;;;20.60;57.80;;;;;;5051313;28;20417;-69
2023/11/19 11:00:38;;;;;;;2.33;2.13;;;20.60;57.80;;;;;;5051037;28;20402;-68
2023/11/19 11:03:11;;;;;;;2.13;1.60;;;20.60;57.80;;;;;;5051107;28;20449;-70
2023/11/19 11:05:38;;;;;;;4.03;1.80;;;20.60;57.80;;;;;;5050767;28;20390;-70
2023/11/19 11:08:06;;;;;;;3.03;2.13;;;20.60;57.80;;;;;;5051036;28;20401;-69
2023/11/19 11:10:36;;;;;;;4.20;1.87;;;20.60;57.80;;;;;;5050786;28;20492;-69
2023/11/19 11:13:03;;;;;;;3.17;1.70;;;20.60;57.80;;;;;;5043285;28;20521;-70
2023/11/19 11:15:31;;;;;;;3.27;1.70;;;20.60;57.80;;;;;;5046146;28;20413;-69
2023/11/19 11:18:03;;;;;;;1.53;1.40;;;20.60;57.70;;;;;;5049461;28;20485;-69
2023/11/19 11:20:33;;;;;;;4.67;1.80;;;20.60;57.70;;;;;;5048792;28;20920;-69
2023/11/19 11:23:21;;;;;;;12.63;2.20;;;20.60;57.70;;;;;;5049243;28;20459;-68
2023/11/19 11:26:10;;;;;;;3.17;2.07;;;20.60;57.70;;;;;;5049808;28;20393;-69
2023/11/19 11:28:48;;;;;;;3.53;1.63;;;20.60;57.70;;;;;;5050391;28;20397;-69
2023/11/19 11:31:29;;;;;;;1.90;1.43;;;20.50;57.60;;;;;;5052789;28;20394;-68
2023/11/19 11:34:16;;;;;;;2.13;1.50;;;20.60;57.70;;;;;;5054848;28;20393;-68
2023/11/19 11:37:19;;;;;;;3.10;1.50;;;20.50;57.60;;;;;;5054221;28;20421;-68
2023/11/19 11:39:47;;;;;;;3.97;2.63;;;20.60;57.70;;;;;;5042773;28;20408;-69
2023/11/19 11:42:22;;;;;;;4.90;1.93;;;20.50;57.70;;;;;;5054729;28;20893;-67
2023/11/19 11:45:10;;;;;;;6.30;2.03;;;20.50;57.70;;;;;;5054365;28;20417;-69
2023/11/19 11:47:47;;;;;;;2.90;1.50;;;20.50;57.70;;;;;;5054216;28;20409;-67
2023/11/19 11:50:14;;;;;;;6.23;2.10;;;20.50;57.80;;;;;;5053961;28;20405;-68
2023/11/19 11:52:58;;;;;;;3.60;2.93;;;20.50;57.80;;;;;;5054218;28;20791;-68
2023/11/19 11:55:27;;;;;;;4.50;2.73;;;20.50;57.90;;;;;;5054149;28;20824;-70
2023/11/19 11:57:56;;;;;;;3.67;2.57;;;20.50;57.90;;;;;;5054281;28;20422;-69
2023/11/19 12:00:27;;;;;;;4.10;1.90;;;20.50;58.00;;;;;;5054180;28;20435;-69
2023/11/19 12:02:56;;;;;;;3.10;2.03;;;20.50;57.90;;;;;;5054056;28;20457;-68
2023/11/19 12:05:22;;;;;;;5.03;2.30;;;20.50;57.80;;;;;;5053852;28;20420;-69
2023/11/19 12:08:01;;;;;;;2.10;1.80;;;20.50;57.80;;;;;;5054146;28;20433;-68
2023/11/19 12:10:31;;;;;;;3.87;2.17;;;20.60;57.90;;;;;;5054101;28;20386;-68
2023/11/19 12:13:01;;;;;;;5.30;2.13;;;20.60;58.00;;;;;;5052046;28;20421;-69
2023/11/19 12:15:28;;;;;;;3.20;2.20;;;20.60;58.00;;;;;;5053831;28;20416;-70
2023/11/19 12:17:54;;;;;;;3.23;1.87;;;20.60;58.00;;;;;;5053461;28;20457;-68
2023/11/19 12:20:24;;;;;;;3.90;2.20;;;20.60;58.00;;;;;;5053674;28;20409;-68
2023/11/19 12:22:51;;;;;;;3.27;2.13;;;20.60;58.00;;;;;;5053786;28;21042;-68
2023/11/19 12:25:19;;;;;;;4.43;2.17;;;20.60;57.90;;;;;;5053874;28;20437;-67
2023/11/19 12:27:46;;;;;;;3.50;2.83;;;20.60;57.90;;;;;;5053449;28;20436;-68
2023/11/19 12:30:16;;;;;;;3.60;2.00;;;20.60;57.90;;;;;;5053797;28;20803;-66
2023/11/19 12:32:44;;;;;;;3.43;2.63;;;20.60;57.90;;;;;;5053646;28;20424;-68
2023/11/19 12:35:11;;;;;;;4.73;2.63;;;20.60;58.00;;;;;;5053382;28;20414;-68
2023/11/19 12:37:55;;;;;;;5.33;2.27;;;20.60;57.90;;;;;;5053705;28;21011;-68
2023/11/19 12:40:25;;;;;;;5.53;2.50;;;20.60;57.90;;;;;;5053730;28;20401;-69
2023/11/19 12:42:55;;;;;;;2.20;1.97;;;20.60;58.00;;;;;;5051636;28;20487;-68
2023/11/19 12:45:23;;;;;;;3.83;2.10;;;20.60;58.00;;;;;;5053087;28;20764;-68
2023/11/19 12:47:49;;;;;;;5.97;2.57;;;20.60;57.90;;;;;;5053253;28;20430;-67
2023/11/19 12:50:18;;;;;;;2.40;2.10;;;20.60;57.90;;;;;;5053088;28;20487;-69